createdAt,value
2018-12-30T00:03:44.421Z,2.07
2018-12-30T00:09:05.032Z,2.18
2018-12-30T00:14:24.565Z,2.26
2018-12-30T00:19:45.406Z,2.33
2018-12-30T00:25:04.963Z,2.31
2018-12-30T00:30:25.560Z,2.35
2018-12-30T00:35:44.821Z,2.38
2018-12-30T00:41:04.368Z,2.43
2018-12-30T00:46:24.112Z,2.49
2018-12-30T00:51:43.577Z,2.56
2018-12-30T00:57:02.976Z,2.66
2018-12-30T01:02:22.701Z,2.61
2018-12-30T01:07:41.910Z,2.78
2018-12-30T01:13:01.504Z,2.86
2018-12-30T01:18:21.372Z,2.91
2018-12-30T01:23:41.588Z,2.93
2018-12-30T01:29:01.462Z,2.99
2018-12-30T01:34:20.756Z,3.07
2018-12-30T01:39:40.343Z,3.09
2018-12-30T01:44:59.959Z,3.16
2018-12-30T01:50:19.511Z,3.23
2018-12-30T01:55:39.255Z,3.32
2018-12-30T02:00:58.931Z,2.96
2018-12-30T02:06:18.255Z,2.65
2018-12-30T02:11:37.422Z,2.48
2018-12-30T02:16:58.459Z,2.37
2018-12-30T02:22:17.747Z,2.30
2018-12-30T02:27:37.699Z,2.06
2018-12-30T02:32:57.463Z,2.09
2018-12-30T02:38:17.105Z,2.20
2018-12-30T02:43:36.640Z,2.09
2018-12-30T02:48:56.775Z,2.19
2018-12-30T02:54:15.876Z,2.18
2018-12-30T02:59:35.307Z,2.16
2018-12-30T03:04:54.694Z,2.14
2018-12-30T03:10:14.473Z,2.22
2018-12-30T03:15:34.643Z,2.15
2018-12-30T03:20:54.122Z,2.30
2018-12-30T03:26:13.792Z,2.36
2018-12-30T03:31:33.251Z,2.42
2018-12-30T03:36:52.335Z,2.44
2018-12-30T03:42:11.627Z,2.44
2018-12-30T03:47:31.154Z,2.52
2018-12-30T03:52:50.098Z,2.60
2018-12-30T03:58:10.458Z,2.55
2018-12-30T04:03:29.857Z,2.52
2018-12-30T04:08:49.168Z,2.53
2018-12-30T04:14:08.920Z,2.62
2018-12-30T04:19:28.332Z,2.68
2018-12-30T04:24:48.082Z,2.70
2018-12-30T04:30:07.324Z,2.71
2018-12-30T04:35:26.853Z,2.63
2018-12-30T04:40:46.043Z,2.64
2018-12-30T04:46:05.485Z,2.70
2018-12-30T04:51:24.745Z,2.71
2018-12-30T04:56:44.023Z,2.64
2018-12-30T05:02:03.255Z,2.59
2018-12-30T05:07:22.037Z,2.56
2018-12-30T05:12:41.647Z,2.46
2018-12-30T05:18:00.778Z,2.46
2018-12-30T05:23:20.598Z,2.57
2018-12-30T05:28:40.159Z,2.61
2018-12-30T05:33:59.903Z,2.65
2018-12-30T05:39:19.368Z,2.71
2018-12-30T05:44:39.086Z,2.77
2018-12-30T05:49:58.266Z,2.78
2018-12-30T05:55:17.483Z,2.84
2018-12-30T06:00:36.813Z,2.81
2018-12-30T06:05:55.902Z,2.84
2018-12-30T06:11:16.694Z,2.86
2018-12-30T06:16:35.867Z,2.89
2018-12-30T06:21:55.992Z,2.89
2018-12-30T06:27:15.644Z,2.93
2018-12-30T06:32:34.588Z,3.00
2018-12-30T06:37:54.472Z,2.93
2018-12-30T06:43:13.401Z,2.96
2018-12-30T06:48:33.445Z,3.01
2018-12-30T06:53:52.452Z,3.07
2018-12-30T06:59:12.153Z,3.07
2018-12-30T07:04:31.252Z,3.13
2018-12-30T07:09:51.743Z,3.13
2018-12-30T07:15:11.688Z,3.15
2018-12-30T07:20:31.551Z,3.17
2018-12-30T07:25:51.776Z,3.18
2018-12-30T07:31:11.556Z,3.19
2018-12-30T07:36:31.254Z,3.08
2018-12-30T07:41:50.828Z,3.13
2018-12-30T07:47:09.740Z,3.19
2018-12-30T07:52:29.604Z,3.13
2018-12-30T07:57:49.857Z,3.16
2018-12-30T08:03:11.980Z,3.23
2018-12-30T08:08:31.859Z,3.22
2018-12-30T08:13:51.546Z,3.16
2018-12-30T08:19:10.432Z,3.14
2018-12-30T08:24:30.230Z,3.22
2018-12-30T08:29:50.615Z,3.17
2018-12-30T08:35:09.723Z,3.13
2018-12-30T08:40:29.177Z,3.17
2018-12-30T08:45:48.692Z,3.23
2018-12-30T08:51:10.259Z,3.22
2018-12-30T08:56:29.091Z,3.32
2018-12-30T09:01:48.556Z,3.37
2018-12-30T09:07:07.892Z,3.38
2018-12-30T09:12:28.415Z,3.43
2018-12-30T09:17:47.227Z,3.49
2018-12-30T09:23:07.587Z,3.47
2018-12-30T09:28:27.445Z,3.56
2018-12-30T09:33:46.918Z,3.45
2018-12-30T09:39:07.359Z,3.45
2018-12-30T09:44:26.381Z,3.45
2018-12-30T09:49:46.059Z,3.33
2018-12-30T09:55:05.790Z,3.33
2018-12-30T10:00:24.874Z,3.33
2018-12-30T10:05:44.212Z,3.37
2018-12-30T10:11:04.481Z,3.40
2018-12-30T10:16:24.324Z,3.37
2018-12-30T10:21:44.991Z,3.43
2018-12-30T10:27:04.537Z,3.44
2018-12-30T10:32:24.567Z,3.43
2018-12-30T10:37:43.630Z,3.46
2018-12-30T10:43:03.362Z,3.46
2018-12-30T10:48:23.157Z,3.45
2018-12-30T10:53:43.606Z,3.44
2018-12-30T10:59:02.723Z,3.44
2018-12-30T11:04:22.558Z,3.47
2018-12-30T11:09:42.569Z,3.58
2018-12-30T11:15:01.676Z,3.61
2018-12-30T11:20:20.998Z,3.61
2018-12-30T11:25:40.380Z,3.52
2018-12-30T11:30:59.565Z,3.43
2018-12-30T11:36:19.072Z,3.45
2018-12-30T11:41:39.525Z,3.48
2018-12-30T11:46:59.042Z,3.48
2018-12-30T11:52:19.198Z,3.51
2018-12-30T11:57:39.667Z,3.49
2018-12-30T12:02:59.847Z,3.50
2018-12-30T12:08:20.401Z,3.56
2018-12-30T12:13:40.007Z,3.61
2018-12-30T12:19:01.160Z,3.66
2018-12-30T12:24:24.431Z,3.71
2018-12-30T12:29:48.135Z,3.73
2018-12-30T12:35:07.706Z,3.75
2018-12-30T12:40:27.391Z,3.72
2018-12-30T12:45:47.794Z,3.71
2018-12-30T12:51:07.256Z,3.76
2018-12-30T12:56:26.661Z,3.76
2018-12-30T13:01:45.971Z,3.77
2018-12-30T13:07:05.207Z,3.73
2018-12-30T13:12:25.326Z,3.74
2018-12-30T13:17:44.694Z,3.74
2018-12-30T13:23:04.599Z,3.80
2018-12-30T13:28:24.014Z,3.75
2018-12-30T13:33:43.359Z,3.80
2018-12-30T13:39:03.483Z,3.86
2018-12-30T13:44:23.236Z,3.84
2018-12-30T13:49:42.402Z,3.81
2018-12-30T13:55:02.196Z,3.84
2018-12-30T14:00:25.606Z,3.86
2018-12-30T14:05:45.215Z,3.90
2018-12-30T14:11:06.559Z,3.90
2018-12-30T14:16:26.561Z,3.93
2018-12-30T14:21:48.431Z,3.98
2018-12-30T14:27:08.699Z,4.08
2018-12-30T14:32:27.901Z,4.10
2018-12-30T14:37:50.372Z,4.17
2018-12-30T14:43:10.407Z,4.20
2018-12-30T14:48:29.630Z,4.21
2018-12-30T14:53:49.232Z,4.23
2018-12-30T14:59:08.801Z,4.33
2018-12-30T15:04:30.738Z,4.42
2018-12-30T15:09:51.107Z,4.40
2018-12-30T15:15:10.950Z,4.39
2018-12-30T15:20:30.585Z,4.39
2018-12-30T15:25:50.494Z,4.40
2018-12-30T15:31:09.910Z,4.42
2018-12-30T15:36:29.730Z,4.44
2018-12-30T15:41:49.994Z,4.44
2018-12-30T15:47:09.501Z,4.43
2018-12-30T15:52:29.101Z,4.43
2018-12-30T15:57:48.178Z,4.39
2018-12-30T16:03:07.688Z,4.38
2018-12-30T16:08:26.847Z,4.35
2018-12-30T16:13:46.472Z,4.38
2018-12-30T16:19:05.713Z,4.38
2018-12-30T16:24:25.456Z,4.37
2018-12-30T16:29:45.174Z,4.34
2018-12-30T16:35:04.867Z,4.34
2018-12-30T16:40:24.263Z,4.33
2018-12-30T16:45:44.200Z,4.36
2018-12-30T16:51:04.187Z,4.39
2018-12-30T16:56:23.304Z,4.36
2018-12-30T17:01:42.967Z,4.40
2018-12-30T17:07:02.474Z,4.39
2018-12-30T17:12:23.562Z,4.44
2018-12-30T17:17:43.764Z,4.44
2018-12-30T17:23:04.445Z,4.39
2018-12-30T17:28:25.894Z,4.38
2018-12-30T17:33:45.567Z,4.38
2018-12-30T17:39:06.267Z,4.33
2018-12-30T17:44:26.348Z,4.34
2018-12-30T17:49:47.365Z,4.39
2018-12-30T17:55:07.025Z,4.40
2018-12-30T18:00:26.709Z,4.39
2018-12-30T18:05:46.344Z,4.37
2018-12-30T18:11:05.964Z,4.38
2018-12-30T18:16:26.505Z,4.44
2018-12-30T18:21:47.561Z,4.45
2018-12-30T18:27:08.054Z,4.46
2018-12-30T18:32:29.369Z,4.43
2018-12-30T18:37:49.285Z,4.47
2018-12-30T18:43:09.667Z,4.49
2018-12-30T18:48:29.286Z,4.43
2018-12-30T18:53:49.195Z,4.43
2018-12-30T18:59:08.801Z,4.47
2018-12-30T19:04:28.818Z,4.48
2018-12-30T19:09:48.889Z,4.51
2018-12-30T19:15:20.382Z,4.49
2018-12-30T19:20:39.633Z,4.53
2018-12-30T19:26:01.181Z,4.52
2018-12-30T19:31:18.988Z,4.58
2018-12-30T19:36:38.695Z,4.53
2018-12-30T19:41:59.880Z,4.54
2018-12-30T19:47:21.264Z,4.50
2018-12-30T19:52:41.877Z,4.51
2018-12-30T19:58:01.988Z,4.56
2018-12-30T20:03:22.116Z,4.54
2018-12-30T20:08:42.841Z,4.54
2018-12-30T20:14:02.909Z,4.54
2018-12-30T20:19:23.366Z,4.42
2018-12-30T20:24:43.245Z,4.38
2018-12-30T20:30:02.727Z,4.38
2018-12-30T20:35:23.746Z,4.33
2018-12-30T20:40:43.039Z,4.24
2018-12-30T20:46:03.338Z,4.22
2018-12-30T20:51:23.522Z,4.29
2018-12-30T20:56:43.321Z,4.23
2018-12-30T21:02:03.868Z,4.21
2018-12-30T21:07:23.786Z,4.23
2018-12-30T21:12:43.525Z,4.25
2018-12-30T21:18:04.182Z,4.27
2018-12-30T21:23:24.430Z,4.25
2018-12-30T21:28:44.463Z,4.33
2018-12-30T21:34:05.844Z,4.30
2018-12-30T21:39:25.442Z,4.30
2018-12-30T21:44:47.647Z,4.24
2018-12-30T21:50:08.302Z,4.21
2018-12-30T21:55:27.747Z,4.24
2018-12-30T22:00:48.571Z,4.22
2018-12-30T22:06:07.884Z,4.25
2018-12-30T22:11:27.274Z,4.20
2018-12-30T22:16:46.844Z,4.19
2018-12-30T22:22:06.254Z,4.21
2018-12-30T22:27:27.084Z,4.22
2018-12-30T22:32:46.783Z,4.18
2018-12-30T22:38:06.458Z,4.24
2018-12-30T22:43:26.854Z,4.21
2018-12-30T22:48:46.980Z,4.24
2018-12-30T22:54:06.605Z,4.18
2018-12-30T22:59:26.032Z,4.20
2018-12-30T23:04:45.220Z,4.19
2018-12-30T23:10:04.607Z,4.19
2018-12-30T23:15:23.941Z,4.14
2018-12-30T23:20:43.634Z,4.10
2018-12-30T23:26:03.355Z,4.08
2018-12-30T23:31:23.340Z,4.09
2018-12-30T23:36:43.429Z,4.01
2018-12-30T23:42:02.750Z,3.96
2018-12-30T23:47:22.360Z,4.00
2018-12-30T23:52:41.896Z,3.97
2018-12-30T23:58:01.224Z,3.92
